Time;durP1;ratioP1;P1;durP2;ratioP2;P2;SDS_P1;SDS_P2;PMS_P1;PMS_P2;Temp;Humidity;BMP_temperature;BMP_pressure;BME280_temperature;BME280_humidity;BME280_pressure;Samples;Min_cycle;Max_cycle;Signal;HPM_P1;HPM_P2
2023/01/18 00:00:27;;;;;;;1.02;0.47;;;-1.30;91.50;;;;;;5095600;28;20075;-77
2023/01/18 00:02:53;;;;;;;1.90;0.75;;;-1.40;91.50;;;;;;5114173;28;20575;-77
2023/01/18 00:05:21;;;;;;;0.73;0.50;;;-1.40;91.50;;;;;;5095654;28;20118;-77
2023/01/18 00:07:48;;;;;;;0.98;0.52;;;-1.30;91.50;;;;;;5113658;28;20070;-77
2023/01/18 00:10:14;;;;;;;0.88;0.50;;;-1.40;91.50;;;;;;5114202;28;20126;-77
2023/01/18 00:12:39;;;;;;;0.93;0.47;;;-1.40;91.50;;;;;;5095333;28;20131;-78
2023/01/18 00:15:06;;;;;;;0.30;0.30;;;-1.40;91.60;;;;;;5114253;28;20413;-77
2023/01/18 00:17:31;;;;;;;0.60;0.40;;;-1.40;91.50;;;;;;5095681;28;20126;-77
2023/01/18 00:19:57;;;;;;;0.38;0.30;;;-1.40;91.50;;;;;;5114116;28;20071;-77
2023/01/18 00:22:23;;;;;;;0.82;0.47;;;-1.40;91.50;;;;;;5078345;28;20052;-77
2023/01/18 00:24:48;;;;;;;0.80;0.50;;;-1.40;91.50;;;;;;5113423;28;20076;-77
2023/01/18 00:27:14;;;;;;;0.63;0.45;;;-1.50;91.50;;;;;;5095875;28;20070;-77
2023/01/18 00:29:40;;;;;;;0.65;0.43;;;-1.50;91.50;;;;;;5095745;28;20042;-77
2023/01/18 00:32:05;;;;;;;0.75;0.47;;;-1.50;91.50;;;;;;5094404;28;20036;-77
2023/01/18 00:34:31;;;;;;;1.13;0.60;;;-1.50;91.50;;;;;;5113309;28;20035;-77
2023/01/18 00:36:56;;;;;;;0.93;0.60;;;-1.50;91.50;;;;;;5113731;28;20051;-77
2023/01/18 00:39:22;;;;;;;0.60;0.60;;;-1.50;91.60;;;;;;5113309;28;20055;-77
2023/01/18 00:44:26;;;;;;;1.13;0.40;;;-1.50;91.60;;;;;;5113151;28;20027;-77
2023/01/18 00:46:54;;;;;;;1.13;0.65;;;-1.60;91.50;;;;;;5077893;28;20035;-77
2023/01/18 00:49:20;;;;;;;0.70;0.50;;;-1.50;91.60;;;;;;5062026;28;20136;-77
2023/01/18 00:51:46;;;;;;;1.13;0.60;;;-1.50;91.60;;;;;;5094981;28;20135;-77
2023/01/18 00:54:12;;;;;;;0.70;0.50;;;-1.60;91.50;;;;;;5094636;28;20071;-77
2023/01/18 00:56:37;;;;;;;0.70;0.50;;;-1.50;91.60;;;;;;5113178;28;20074;-77
2023/01/18 00:59:03;;;;;;;0.40;0.32;;;-1.60;91.50;;;;;;5094777;28;20048;-77
2023/01/18 01:01:28;;;;;;;1.02;0.55;;;-1.50;91.60;;;;;;5094872;28;20051;-77
2023/01/18 01:06:44;;;;;;;1.52;0.75;;;-1.50;91.60;;;;;;5097168;28;20127;-77
2023/01/18 01:09:17;;;;;;;0.98;0.43;;;-1.50;91.50;;;;;;5095391;28;20071;-77
2023/01/18 01:12:33;;;;;;;0.80;0.47;;;-1.50;91.50;;;;;;5113202;28;20048;-77
2023/01/18 01:27:48;;;;;;;1.15;0.60;;;-1.50;91.50;;;;;;5081807;28;20048;-77
2023/01/18 01:30:14;;;;;;;1.08;0.57;;;-1.50;91.50;;;;;;5094131;28;20101;-77
2023/01/18 01:32:40;;;;;;;0.35;0.30;;;-1.50;91.40;;;;;;5094060;28;20046;-77
2023/01/18 01:35:06;;;;;;;0.60;0.57;;;-1.50;91.40;;;;;;5112661;28;20435;-77
2023/01/18 01:37:32;;;;;;;0.63;0.50;;;-1.50;91.40;;;;;;5094295;28;20047;-77
2023/01/18 01:39:58;;;;;;;0.70;0.40;;;-1.50;91.40;;;;;;5112197;28;20046;-77
2023/01/18 01:42:23;;;;;;;0.63;0.50;;;-1.60;91.40;;;;;;5094002;28;20404;-76
2023/01/18 01:44:50;;;;;;;0.77;0.45;;;-1.50;91.40;;;;;;5097775;28;20040;-77
2023/01/18 01:47:33;;;;;;;0.50;0.40;;;-1.60;91.40;;;;;;5097582;28;20481;-77
2023/01/18 01:50:06;;;;;;;0.80;0.50;;;-1.60;91.50;;;;;;5079238;28;20047;-77
2023/01/18 01:52:35;;;;;;;1.45;0.73;;;-1.60;91.50;;;;;;5097109;28;20035;-76
2023/01/18 01:55:15;;;;;;;0.95;0.57;;;-1.60;91.50;;;;;;5097546;28;20138;-77
2023/01/18 01:58:03;;;;;;;1.25;0.70;;;-1.60;91.50;;;;;;5097368;28;20150;-76
2023/01/18 02:00:30;;;;;;;0.85;0.52;;;-1.70;91.50;;;;;;5096099;28;20047;-76
2023/01/18 02:02:59;;;;;;;1.05;0.63;;;-1.70;91.50;;;;;;5097851;28;20043;-76
2023/01/18 02:05:26;;;;;;;0.65;0.50;;;-1.70;91.50;;;;;;5097361;28;20035;-76
2023/01/18 02:07:56;;;;;;;0.90;0.60;;;-1.70;91.50;;;;;;5097642;28;20063;-77
2023/01/18 02:10:21;;;;;;;0.77;0.50;;;-1.70;91.50;;;;;;5115481;28;20074;-76
2023/01/18 02:12:49;;;;;;;0.80;0.40;;;-1.70;91.50;;;;;;5080265;28;20079;-77
2023/01/18 02:15:15;;;;;;;0.40;0.30;;;-1.70;91.50;;;;;;5097437;28;20036;-76
2023/01/18 02:18:12;;;;;;;0.82;0.45;;;-1.80;91.50;;;;;;5115846;28;20126;-77
2023/01/18 02:21:08;;;;;;;0.63;0.40;;;-1.80;91.60;;;;;;5115236;28;20046;-77
2023/01/18 02:24:08;;;;;;;0.65;0.43;;;-1.80;91.60;;;;;;5101583;28;20054;-77
2023/01/18 02:27:09;;;;;;;1.08;0.60;;;-1.90;91.60;;;;;;5115127;28;20485;-77
2023/01/18 02:29:51;;;;;;;0.52;0.35;;;-1.90;91.60;;;;;;5102300;28;20135;-77
2023/01/18 02:32:31;;;;;;;0.73;0.50;;;-1.90;91.60;;;;;;5096794;28;20055;-77
2023/01/18 02:35:13;;;;;;;0.93;0.50;;;-1.90;91.60;;;;;;5096534;28;20058;-77
2023/01/18 02:38:10;;;;;;;0.82;0.40;;;-1.90;91.60;;;;;;5114370;28;20051;-77
2023/01/18 02:41:00;;;;;;;0.70;0.50;;;-2.00;91.60;;;;;;5081457;28;20112;-77
2023/01/18 02:48:57;;;;;;;0.85;0.60;;;-1.90;91.70;;;;;;5114784;28;20123;-77
2023/01/18 02:51:23;;;;;;;1.05;0.60;;;-2.00;91.60;;;;;;5096626;28;20040;-77
2023/01/18 02:53:49;;;;;;;0.50;0.40;;;-2.10;91.60;;;;;;5096431;28;20040;-77
2023/01/18 02:56:20;;;;;;;1.02;0.60;;;-2.10;91.70;;;;;;5115102;28;20138;-77
2023/01/18 02:58:56;;;;;;;1.02;0.60;;;-2.00;91.70;;;;;;5097143;28;20055;-77
2023/01/18 03:01:33;;;;;;;0.68;0.43;;;-2.10;91.70;;;;;;5081167;28;20040;-77
2023/01/18 03:04:07;;;;;;;1.05;0.60;;;-2.10;91.70;;;;;;5113665;28;20044;-77
2023/01/18 03:06:33;;;;;;;0.60;0.50;;;-2.20;91.70;;;;;;5114571;28;20106;-77
2023/01/18 03:08:59;;;;;;;0.82;0.50;;;-2.20;91.70;;;;;;5096181;28;20134;-77
2023/01/18 03:11:52;;;;;;;0.82;0.47;;;-2.20;91.70;;;;;;5079368;28;20438;-77
2023/01/18 03:14:37;;;;;;;0.65;0.43;;;-2.20;91.70;;;;;;5114544;28;20130;-77
2023/01/18 03:17:19;;;;;;;0.93;0.40;;;-2.20;92.00;;;;;;5081325;28;20051;-78
2023/01/18 03:25:21;;;;;;;1.60;0.65;;;-2.20;91.70;;;;;;5098182;28;20071;-77
2023/01/18 03:35:52;;;;;;;0.82;0.60;;;-2.30;91.80;;;;;;5114131;28;20055;-77
2023/01/18 03:38:19;;;;;;;0.52;0.40;;;-2.40;91.80;;;;;;5079241;28;20052;-77
2023/01/18 03:40:45;;;;;;;0.55;0.45;;;-2.30;91.80;;;;;;5114163;28;20083;-77
2023/01/18 03:43:15;;;;;;;0.73;0.60;;;-2.40;91.80;;;;;;5114319;28;20063;-77
2023/01/18 03:45:43;;;;;;;0.98;0.50;;;-2.40;91.80;;;;;;5114186;28;20078;-77
2023/01/18 03:48:10;;;;;;;0.68;0.40;;;-2.30;91.80;;;;;;5062441;28;20181;-77
2023/01/18 03:51:01;;;;;;;0.63;0.45;;;-2.40;91.80;;;;;;5078888;28;20502;-77
2023/01/18 03:53:33;;;;;;;0.95;0.55;;;-2.40;91.80;;;;;;5095759;28;20039;-77
2023/01/18 03:56:06;;;;;;;0.90;0.60;;;-2.40;91.80;;;;;;5111736;28;20035;-77
2023/01/18 03:58:35;;;;;;;0.80;0.45;;;-2.40;91.80;;;;;;5078671;28;20039;-77
2023/01/18 04:01:02;;;;;;;0.75;0.50;;;-2.40;91.80;;;;;;5095491;28;20524;-77
2023/01/18 04:03:30;;;;;;;0.75;0.60;;;-2.40;91.80;;;;;;5114034;28;20044;-78
2023/01/18 04:05:57;;;;;;;0.70;0.40;;;-2.40;91.80;;;;;;5094512;28;20084;-78
2023/01/18 04:08:23;;;;;;;0.57;0.40;;;-2.40;91.80;;;;;;5078543;28;20401;-77
2023/01/18 04:10:49;;;;;;;0.93;0.60;;;-2.50;91.80;;;;;;5079079;28;20050;-77
2023/01/18 04:13:14;;;;;;;0.40;0.40;;;-2.40;91.80;;;;;;5113859;28;20039;-77
2023/01/18 04:15:40;;;;;;;0.63;0.40;;;-2.50;91.80;;;;;;5113558;28;20039;-77
2023/01/18 04:18:05;;;;;;;0.63;0.50;;;-2.40;91.80;;;;;;5095395;28;20078;-77
2023/01/18 04:20:31;;;;;;;0.70;0.40;;;-2.50;91.80;;;;;;5095464;28;20131;-77
2023/01/18 04:22:57;;;;;;;0.40;0.40;;;-2.50;91.80;;;;;;5095067;28;20044;-77
2023/01/18 04:25:22;;;;;;;1.23;0.55;;;-2.50;91.80;;;;;;5078404;28;20100;-77
2023/01/18 04:27:48;;;;;;;0.32;0.32;;;-2.50;91.80;;;;;;5113752;28;20389;-77
2023/01/18 04:30:14;;;;;;;0.55;0.35;;;-2.60;91.80;;;;;;5078262;28;20039;-77
2023/01/18 04:32:41;;;;;;;0.80;0.43;;;-2.60;91.80;;;;;;5113419;28;20039;-78
2023/01/18 04:35:07;;;;;;;1.45;0.73;;;-2.50;91.80;;;;;;5078146;28;20047;-78
2023/01/18 04:37:33;;;;;;;0.90;0.65;;;-2.50;91.80;;;;;;5094980;28;20035;-78
2023/01/18 04:39:59;;;;;;;1.15;0.50;;;-2.50;91.80;;;;;;5061254;28;20047;-77
2023/01/18 04:42:25;;;;;;;0.43;0.40;;;-2.40;91.80;;;;;;5061295;28;20477;-78
2023/01/18 04:44:52;;;;;;;1.83;0.50;;;-2.40;91.80;;;;;;5077883;28;20047;-78
2023/01/18 04:47:17;;;;;;;0.40;0.40;;;-2.50;91.70;;;;;;5078124;28;20469;-78
2023/01/18 04:49:43;;;;;;;0.50;0.32;;;-2.50;91.80;;;;;;5112993;28;20088;-77
2023/01/18 04:52:09;;;;;;;0.60;0.50;;;-2.50;91.80;;;;;;5078256;28;20097;-77
2023/01/18 04:54:35;;;;;;;0.60;0.50;;;-2.50;91.80;;;;;;5077971;28;20161;-77
2023/01/18 04:57:00;;;;;;;1.15;0.60;;;-2.50;91.70;;;;;;5112937;28;20055;-77
2023/01/18 04:59:27;;;;;;;0.50;0.40;;;-2.50;91.70;;;;;;5112974;28;20047;-77
2023/01/18 05:01:53;;;;;;;0.63;0.50;;;-2.50;91.80;;;;;;5094609;28;20076;-77
2023/01/18 05:04:19;;;;;;;0.52;0.43;;;-2.50;91.80;;;;;;5094488;28;20132;-77
2023/01/18 05:06:47;;;;;;;0.47;0.40;;;-2.60;91.70;;;;;;5094756;28;20078;-77
2023/01/18 05:09:12;;;;;;;0.93;0.60;;;-2.50;91.80;;;;;;5111066;28;20044;-77
2023/01/18 05:11:38;;;;;;;1.05;0.45;;;-2.50;91.90;;;;;;5112748;28;20096;-77
2023/01/18 05:14:04;;;;;;;0.80;0.60;;;-2.50;91.80;;;;;;5077492;28;20122;-77
2023/01/18 05:16:29;;;;;;;1.00;0.45;;;-2.50;91.80;;;;;;5094481;28;20127;-77
2023/01/18 05:18:55;;;;;;;0.88;0.47;;;-2.50;91.70;;;;;;5077215;28;20151;-77
2023/01/18 05:21:21;;;;;;;0.80;0.50;;;-2.50;91.80;;;;;;5112682;28;20043;-78
2023/01/18 05:23:46;;;;;;;0.88;0.50;;;-2.40;91.90;;;;;;5094538;28;20043;-77
2023/01/18 05:26:16;;;;;;;0.70;0.40;;;-2.50;91.80;;;;;;5061077;28;20038;-77
2023/01/18 05:28:43;;;;;;;0.50;0.40;;;-2.50;91.70;;;;;;5095188;28;20078;-77
2023/01/18 05:31:09;;;;;;;0.65;0.50;;;-2.50;91.80;;;;;;5094426;28;20063;-77
2023/01/18 05:33:35;;;;;;;0.77;0.40;;;-2.60;91.80;;;;;;5113174;28;20074;-77
2023/01/18 05:36:00;;;;;;;0.63;0.38;;;-2.60;91.80;;;;;;5094605;28;20038;-77
2023/01/18 05:38:26;;;;;;;0.40;0.30;;;-2.50;91.90;;;;;;5077710;28;20046;-77
2023/01/18 05:40:53;;;;;;;0.30;0.30;;;-2.50;91.90;;;;;;5113096;28;20062;-77
2023/01/18 05:43:22;;;;;;;0.55;0.50;;;-2.50;92.10;;;;;;5092454;28;20066;-77
2023/01/18 05:45:47;;;;;;;0.95;0.50;;;-2.50;91.80;;;;;;5112579;28;20074;-77
2023/01/18 05:48:13;;;;;;;0.77;0.50;;;-2.60;91.80;;;;;;5094393;28;20043;-77
2023/01/18 05:50:42;;;;;;;0.32;0.32;;;-2.50;91.80;;;;;;5094162;28;20187;-77
2023/01/18 05:53:08;;;;;;;0.38;0.30;;;-2.50;91.80;;;;;;5094046;28;20489;-77
2023/01/18 05:55:34;;;;;;;1.02;0.40;;;-2.50;91.80;;;;;;5112296;28;20036;-76
2023/01/18 05:58:00;;;;;;;0.40;0.40;;;-2.40;91.80;;;;;;5093901;28;20048;-75
2023/01/18 06:00:26;;;;;;;0.57;0.50;;;-2.40;91.80;;;;;;5112326;28;20048;-76
2023/01/18 06:02:52;;;;;;;0.75;0.60;;;-2.40;91.80;;;;;;5077106;28;20481;-76
2023/01/18 06:05:19;;;;;;;0.40;0.40;;;-2.40;91.80;;;;;;5112716;28;20479;-76
2023/01/18 06:07:46;;;;;;;0.52;0.43;;;-2.40;91.80;;;;;;5112041;28;20496;-77
2023/01/18 06:10:13;;;;;;;0.45;0.40;;;-2.40;91.70;;;;;;5077049;28;20077;-76
2023/01/18 06:12:39;;;;;;;0.50;0.43;;;-2.40;91.70;;;;;;5094103;28;20042;-76
2023/01/18 06:15:05;;;;;;;1.00;0.45;;;-2.40;91.70;;;;;;5112684;28;20046;-76
2023/01/18 06:17:33;;;;;;;0.40;0.40;;;-2.40;91.70;;;;;;5093822;28;20405;-77
2023/01/18 06:19:58;;;;;;;1.15;0.68;;;-2.40;92.00;;;;;;5093836;28;20507;-77
2023/01/18 06:22:24;;;;;;;0.90;0.50;;;-2.40;91.70;;;;;;5093743;28;20043;-77
2023/01/18 06:24:50;;;;;;;0.70;0.40;;;-2.40;91.80;;;;;;5077180;28;20050;-77
2023/01/18 06:27:16;;;;;;;0.85;0.50;;;-2.50;91.70;;;;;;5093791;28;20108;-77
2023/01/18 06:29:41;;;;;;;1.50;0.40;;;-2.40;91.80;;;;;;5095341;28;20065;-77
2023/01/18 06:32:07;;;;;;;0.57;0.47;;;-2.40;91.80;;;;;;5115271;28;20046;-77
2023/01/18 06:34:32;;;;;;;0.85;0.52;;;-2.30;91.70;;;;;;5115763;28;20408;-77
2023/01/18 06:36:59;;;;;;;1.67;0.57;;;-2.40;91.70;;;;;;5096670;28;20054;-77
2023/01/18 06:39:25;;;;;;;0.70;0.55;;;-2.40;91.70;;;;;;5097078;28;20050;-77
2023/01/18 06:41:50;;;;;;;1.48;0.60;;;-2.40;91.70;;;;;;5096840;28;20035;-78
2023/01/18 06:44:16;;;;;;;0.55;0.47;;;-2.40;91.70;;;;;;5115236;28;20043;-77
2023/01/18 06:46:43;;;;;;;0.77;0.60;;;-2.30;91.80;;;;;;5115612;28;20040;-77
2023/01/18 06:49:10;;;;;;;0.30;0.30;;;-2.40;91.80;;;;;;5080132;28;20370;-78
2023/01/18 06:51:36;;;;;;;0.52;0.40;;;-2.40;91.80;;;;;;5114918;28;20069;-77
2023/01/18 06:54:02;;;;;;;0.65;0.50;;;-2.50;91.70;;;;;;5097178;28;20093;-77
2023/01/18 06:56:28;;;;;;;0.75;0.57;;;-2.50;91.80;;;;;;5097031;28;20385;-77
2023/01/18 06:58:56;;;;;;;1.15;0.60;;;-2.50;91.80;;;;;;5114954;28;20100;-77
2023/01/18 07:01:22;;;;;;;0.55;0.50;;;-2.60;91.80;;;;;;5114994;28;20047;-76
2023/01/18 07:03:48;;;;;;;0.70;0.40;;;-2.60;91.80;;;;;;5097203;28;20469;-76
2023/01/18 07:06:13;;;;;;;0.77;0.40;;;-2.60;91.80;;;;;;5097406;28;20035;-76
2023/01/18 07:08:40;;;;;;;1.00;0.63;;;-2.60;91.80;;;;;;5115348;28;20085;-76
2023/01/18 07:11:08;;;;;;;1.50;0.65;;;-2.60;91.90;;;;;;5114839;28;20039;-76
2023/01/18 07:13:34;;;;;;;0.77;0.60;;;-2.60;91.90;;;;;;5097202;28;20043;-77
2023/01/18 07:16:01;;;;;;;0.70;0.47;;;-2.60;91.90;;;;;;5079627;28;20038;-77
2023/01/18 07:18:28;;;;;;;0.50;0.40;;;-2.60;91.80;;;;;;5114345;28;20119;-75
2023/01/18 07:21:06;;;;;;;1.25;0.50;;;-2.70;91.90;;;;;;5096243;28;20043;-76
2023/01/18 07:23:34;;;;;;;0.60;0.30;;;-2.70;91.90;;;;;;5077786;28;20040;-76
2023/01/18 07:26:05;;;;;;;1.27;0.60;;;-2.60;92.00;;;;;;5079532;28;20396;-76
2023/01/18 07:28:32;;;;;;;1.10;0.52;;;-2.70;91.90;;;;;;5094564;28;20038;-76
2023/01/18 07:30:57;;;;;;;1.52;0.60;;;-2.70;91.90;;;;;;5114300;28;20082;-76
2023/01/18 07:33:23;;;;;;;0.68;0.40;;;-2.70;91.90;;;;;;5114283;28;20446;-76
2023/01/18 07:35:52;;;;;;;1.05;0.60;;;-2.70;91.90;;;;;;5079151;28;20032;-77
2023/01/18 07:38:18;;;;;;;0.80;0.40;;;-2.70;92.00;;;;;;5096100;28;20047;-78
2023/01/18 07:40:50;;;;;;;0.45;0.45;;;-2.80;91.90;;;;;;5062768;28;20620;-77
2023/01/18 07:43:17;;;;;;;0.95;0.70;;;-2.60;92.00;;;;;;5062168;28;20055;-77
2023/01/18 07:45:44;;;;;;;0.82;0.47;;;-2.60;92.00;;;;;;5095806;28;20402;-76
2023/01/18 07:48:10;;;;;;;0.73;0.50;;;-2.40;92.00;;;;;;5114208;28;20093;-75
2023/01/18 07:50:36;;;;;;;1.05;0.52;;;-2.40;91.90;;;;;;5095776;28;20427;-75
2023/01/18 07:53:05;;;;;;;0.93;0.50;;;-2.10;92.10;;;;;;5095864;28;20043;-75
2023/01/18 07:55:31;;;;;;;0.52;0.50;;;-2.20;91.60;;;;;;5114319;28;20050;-75
2023/01/18 07:57:58;;;;;;;0.77;0.40;;;-2.20;91.60;;;;;;5115078;28;20039;-76
2023/01/18 08:00:24;;;;;;;0.55;0.30;;;-2.20;91.60;;;;;;5114148;28;20079;-76
2023/01/18 08:02:51;;;;;;;0.85;0.50;;;-2.00;91.60;;;;;;5062409;28;20467;-75
2023/01/18 08:05:19;;;;;;;0.65;0.40;;;-2.20;91.60;;;;;;5078835;28;20133;-75
2023/01/18 08:07:46;;;;;;;0.40;0.40;;;-2.10;91.60;;;;;;5113957;28;20044;-75
2023/01/18 08:10:13;;;;;;;0.82;0.50;;;-2.00;91.60;;;;;;5095646;28;20039;-75
2023/01/18 08:12:40;;;;;;;1.40;0.60;;;-2.10;91.60;;;;;;5078915;28;20050;-74
2023/01/18 08:15:06;;;;;;;0.63;0.45;;;-2.00;91.60;;;;;;5113664;28;20036;-74
2023/01/18 08:17:34;;;;;;;1.25;0.52;;;-2.00;91.60;;;;;;5113679;28;20052;-75
2023/01/18 08:20:00;;;;;;;0.90;0.57;;;-1.80;91.60;;;;;;5114016;28;20463;-74
2023/01/18 08:22:25;;;;;;;1.58;0.70;;;-1.90;91.50;;;;;;5095461;28;20037;-75
2023/01/18 08:24:51;;;;;;;0.70;0.57;;;-1.80;91.50;;;;;;5113855;28;20039;-74
2023/01/18 08:27:17;;;;;;;0.95;0.60;;;-1.80;91.50;;;;;;5059561;28;20506;-75
2023/01/18 08:29:43;;;;;;;1.23;0.50;;;-1.80;91.40;;;;;;5078391;28;20043;-74
2023/01/18 08:32:09;;;;;;;1.10;0.40;;;-1.80;91.40;;;;;;5078570;28;20043;-75
2023/01/18 08:34:36;;;;;;;0.90;0.60;;;-1.70;91.50;;;;;;5095237;28;20449;-75
2023/01/18 08:37:01;;;;;;;0.63;0.60;;;-1.60;91.50;;;;;;5078617;28;20055;-75
2023/01/18 08:39:27;;;;;;;1.27;0.80;;;-1.60;91.40;;;;;;5095141;28;20177;-75
2023/01/18 08:41:52;;;;;;;0.73;0.52;;;-1.60;91.40;;;;;;5094989;28;20486;-74
2023/01/18 08:44:18;;;;;;;1.05;0.80;;;-1.50;91.40;;;;;;5113312;28;20067;-74
2023/01/18 08:46:44;;;;;;;1.65;0.82;;;-1.50;91.40;;;;;;5113471;28;20378;-74
2023/01/18 08:49:09;;;;;;;1.20;0.80;;;-1.40;91.30;;;;;;5113518;28;20062;-74
2023/01/18 08:51:35;;;;;;;0.70;0.60;;;-1.40;91.30;;;;;;5112779;28;20043;-74
2023/01/18 08:54:01;;;;;;;1.60;0.80;;;-1.40;91.30;;;;;;5113335;28;20047;-74
2023/01/18 08:56:27;;;;;;;0.68;0.50;;;-1.30;91.30;;;;;;5113535;28;20040;-74
2023/01/18 08:58:52;;;;;;;1.27;0.75;;;-1.30;91.30;;;;;;5113016;28;20035;-74
2023/01/18 09:01:18;;;;;;;1.83;0.73;;;-1.20;91.30;;;;;;5095023;28;20401;-73
2023/01/18 09:03:46;;;;;;;2.03;1.00;;;-1.10;91.30;;;;;;5112959;28;20039;-75
2023/01/18 09:06:15;;;;;;;1.60;1.00;;;-1.00;91.30;;;;;;5078189;28;20097;-75
2023/01/18 09:08:41;;;;;;;1.70;1.05;;;-1.00;91.20;;;;;;5095083;28;20038;-75
2023/01/18 09:11:09;;;;;;;1.15;0.95;;;-0.90;91.10;;;;;;5077782;28;20054;-75
2023/01/18 09:13:35;;;;;;;1.98;1.20;;;-0.70;91.10;;;;;;5094477;28;20122;-75
2023/01/18 09:16:03;;;;;;;2.33;1.00;;;-0.70;91.10;;;;;;5094428;28;20074;-75
2023/01/18 09:18:29;;;;;;;1.35;0.90;;;-0.80;91.00;;;;;;5110716;28;20047;-74
2023/01/18 09:20:56;;;;;;;2.08;1.20;;;-0.70;91.00;;;;;;5112674;28;20481;-74
2023/01/18 09:23:22;;;;;;;2.00;1.20;;;-0.60;91.00;;;;;;5112783;28;20044;-74
2023/01/18 09:25:48;;;;;;;2.47;1.30;;;-0.60;91.00;;;;;;5112597;28;20098;-73
2023/01/18 09:28:15;;;;;;;1.52;1.30;;;-0.50;91.00;;;;;;5112780;28;20043;-74
2023/01/18 09:30:41;;;;;;;1.55;0.90;;;-0.50;90.90;;;;;;5112850;28;20069;-75
2023/01/18 09:33:07;;;;;;;1.77;1.13;;;-0.40;90.90;;;;;;5112678;28;20067;-74
2023/01/18 09:35:33;;;;;;;2.33;1.00;;;-0.30;91.00;;;;;;5094355;28;20127;-73
2023/01/18 09:37:59;;;;;;;2.08;1.27;;;-0.40;90.90;;;;;;5112949;28;20046;-75
2023/01/18 09:40:38;;;;;;;2.33;1.08;;;-0.20;90.90;;;;;;5112881;28;20078;-75
2023/01/18 09:43:14;;;;;;;1.17;0.73;;;-0.20;90.90;;;;;;5092618;28;20040;-74
2023/01/18 09:45:43;;;;;;;1.10;0.93;;;0.00;90.90;;;;;;5112061;28;20388;-74
2023/01/18 09:48:22;;;;;;;1.88;1.10;;;0.10;90.80;;;;;;5077852;28;20111;-76
2023/01/18 09:50:48;;;;;;;2.08;1.10;;;0.20;90.70;;;;;;5078250;28;20039;-75
2023/01/18 09:53:38;;;;;;;1.98;1.20;;;0.20;90.70;;;;;;5112304;28;20048;-75
2023/01/18 09:56:10;;;;;;;2.67;1.13;;;0.30;90.60;;;;;;5110347;28;20130;-75
2023/01/18 09:58:57;;;;;;;1.60;1.10;;;0.30;90.60;;;;;;5094107;28;20039;-74
2023/01/18 10:01:26;;;;;;;1.08;0.95;;;0.50;90.60;;;;;;5112837;28;20050;-73
2023/01/18 10:03:58;;;;;;;1.00;0.90;;;0.60;90.90;;;;;;5094395;28;20388;-74
2023/01/18 10:06:38;;;;;;;1.85;1.27;;;0.70;90.50;;;;;;5097531;28;20507;-75
2023/01/18 10:09:10;;;;;;;1.85;1.00;;;0.80;90.40;;;;;;5099026;28;20126;-74
2023/01/18 10:11:53;;;;;;;1.88;1.20;;;1.00;90.40;;;;;;5081645;28;20032;-74
2023/01/18 10:14:55;;;;;;;2.65;1.38;;;1.00;90.30;;;;;;5099523;28;20092;-74
2023/01/18 10:17:27;;;;;;;;;;;1.10;90.30;;;;;;5097788;28;20039;-74
2023/01/18 10:19:53;;;;;;;1.75;1.10;;;1.10;90.20;;;;;;5078311;28;20059;-74
2023/01/18 10:22:26;;;;;;;2.58;1.20;;;1.20;90.20;;;;;;5097727;28;20071;-74
2023/01/18 10:25:13;;;;;;;2.33;1.20;;;1.30;90.50;;;;;;5097207;28;20031;-74
2023/01/18 10:28:03;;;;;;;2.63;1.45;;;1.30;90.20;;;;;;5095365;28;20401;-74
2023/01/18 10:30:54;;;;;;;2.33;1.27;;;1.30;90.20;;;;;;5097152;28;20129;-74
2023/01/18 10:33:26;;;;;;;2.67;1.30;;;1.40;90.20;;;;;;5114678;28;20080;-74
2023/01/18 10:35:55;;;;;;;;;;;1.60;90.20;;;;;;5080982;28;20043;-74
2023/01/18 10:38:25;;;;;;;2.92;1.30;;;1.60;90.20;;;;;;5115215;28;19919;-75
2023/01/18 10:40:56;;;;;;;1.80;1.30;;;1.60;90.10;;;;;;5080561;28;20508;-74
2023/01/18 10:43:24;;;;;;;2.58;1.67;;;1.70;90.10;;;;;;5096875;28;20118;-74
2023/01/18 10:45:52;;;;;;;2.20;1.45;;;1.60;90.00;;;;;;5096823;28;20067;-74
2023/01/18 10:48:26;;;;;;;3.15;1.75;;;1.90;90.00;;;;;;5080913;28;20036;-75
2023/01/18 10:50:56;;;;;;;4.13;1.80;;;1.80;90.00;;;;;;5115328;28;20501;-75
2023/01/18 10:53:33;;;;;;;3.00;1.85;;;1.90;90.00;;;;;;5096721;28;20063;-75
2023/01/18 10:56:02;;;;;;;5.20;2.15;;;2.00;90.00;;;;;;5077810;28;20105;-75
2023/01/18 10:58:45;;;;;;;4.10;2.13;;;1.90;90.00;;;;;;5080274;28;20134;-75
2023/01/18 11:01:27;;;;;;;5.20;2.10;;;1.90;90.00;;;;;;5096199;28;20146;-74
2023/01/18 11:04:04;;;;;;;3.25;1.90;;;2.10;90.00;;;;;;5114036;28;20047;-74
2023/01/18 11:06:43;;;;;;;3.53;2.17;;;2.10;90.00;;;;;;5097434;28;20473;-74
2023/01/18 11:09:47;;;;;;;4.38;2.15;;;2.10;89.90;;;;;;5064707;28;20035;-75
2023/01/18 11:12:40;;;;;;;4.93;2.53;;;2.20;89.90;;;;;;5114689;28;20092;-77
2023/01/18 11:15:25;;;;;;;3.75;2.08;;;2.20;89.80;;;;;;5078282;28;20138;-76
2023/01/18 11:18:02;;;;;;;3.67;1.98;;;2.30;89.80;;;;;;5096793;28;20044;-76
2023/01/18 11:20:48;;;;;;;3.38;1.90;;;2.40;89.80;;;;;;5063488;28;20554;-76
2023/01/18 11:23:22;;;;;;;4.68;2.28;;;2.30;89.70;;;;;;5096496;28;20040;-77
2023/01/18 11:25:55;;;;;;;3.03;1.70;;;2.40;89.70;;;;;;5096894;28;20043;-76
2023/01/18 11:28:26;;;;;;;4.07;2.10;;;2.40;89.80;;;;;;5095178;28;20046;-76
2023/01/18 11:31:04;;;;;;;3.40;2.15;;;2.50;89.80;;;;;;5094413;28;20043;-76
2023/01/18 11:33:29;;;;;;;5.07;2.28;;;2.50;89.70;;;;;;5095347;28;20416;-75
2023/01/18 11:35:58;;;;;;;4.18;2.25;;;2.60;89.60;;;;;;5079155;28;20119;-76
2023/01/18 11:38:29;;;;;;;4.50;2.28;;;2.60;89.60;;;;;;5096053;28;20058;-76
2023/01/18 11:41:10;;;;;;;4.40;2.55;;;2.60;89.60;;;;;;5094759;28;20039;-75
2023/01/18 11:43:38;;;;;;;3.47;2.17;;;2.70;89.50;;;;;;5095981;28;20495;-76
2023/01/18 11:46:30;;;;;;;4.75;2.63;;;2.70;89.50;;;;;;5079491;28;20035;-75
2023/01/18 11:49:20;;;;;;;5.55;2.63;;;2.70;89.40;;;;;;5113043;28;20110;-75
2023/01/18 11:52:01;;;;;;;4.13;2.50;;;2.80;89.30;;;;;;5113234;28;20040;-75
2023/01/18 11:54:35;;;;;;;5.30;2.38;;;2.80;89.30;;;;;;5095842;28;20514;-76
2023/01/18 11:57:01;;;;;;;5.53;2.95;;;2.90;89.30;;;;;;5095542;28;20099;-75
2023/01/18 11:59:32;;;;;;;4.45;2.42;;;2.90;89.20;;;;;;5078951;28;20507;-76
2023/01/18 12:02:30;;;;;;;3.90;2.50;;;3.00;89.20;;;;;;5077364;28;20073;-75
2023/01/18 12:05:19;;;;;;;5.38;2.30;;;3.10;89.10;;;;;;5113979;28;20042;-75
2023/01/18 12:08:21;;;;;;;4.72;2.75;;;3.10;89.00;;;;;;5112419;28;20043;-75
2023/01/18 12:11:26;;;;;;;5.50;2.90;;;3.20;89.00;;;;;;5101181;28;20038;-74
2023/01/18 12:14:05;;;;;;;3.80;2.20;;;3.30;89.00;;;;;;5084395;28;20074;-75
2023/01/18 12:17:00;;;;;;;5.38;2.80;;;3.40;88.80;;;;;;5095518;28;20039;-74
2023/01/18 12:19:52;;;;;;;4.40;2.40;;;3.40;88.70;;;;;;5080244;28;20127;-74
2023/01/18 12:22:48;;;;;;;4.53;2.70;;;3.50;88.50;;;;;;5099773;28;20397;-74
2023/01/18 12:25:31;;;;;;;4.25;2.20;;;3.60;88.40;;;;;;5112086;28;20043;-76
2023/01/18 12:28:12;;;;;;;3.72;2.00;;;3.70;88.30;;;;;;5062376;28;20042;-75
2023/01/18 12:30:57;;;;;;;3.50;1.95;;;3.70;88.20;;;;;;5095620;28;20063;-78
2023/01/18 12:33:53;;;;;;;3.70;2.20;;;3.80;88.20;;;;;;5080570;28;20070;-74
2023/01/18 12:36:44;;;;;;;3.10;1.80;;;3.90;88.10;;;;;;5096064;28;20489;-75
2023/01/18 12:39:31;;;;;;;3.07;1.77;;;4.00;88.10;;;;;;5080907;28;20098;-75
2023/01/18 12:42:04;;;;;;;3.00;1.83;;;4.10;88.00;;;;;;5112921;28;20039;-76
2023/01/18 12:44:53;;;;;;;3.58;2.10;;;4.20;87.90;;;;;;5095222;28;20047;-75
2023/01/18 12:47:34;;;;;;;3.75;1.98;;;4.20;87.80;;;;;;5094085;28;20177;-76
2023/01/18 12:50:04;;;;;;;;;;;4.20;87.70;;;;;;5114186;28;20035;-75
2023/01/18 12:52:36;;;;;;;4.15;2.15;;;4.30;87.70;;;;;;5078176;28;19908;-75
2023/01/18 12:55:05;;;;;;;3.97;2.20;;;4.30;87.50;;;;;;5111090;28;20121;-75
2023/01/18 12:57:32;;;;;;;4.10;2.20;;;4.40;87.50;;;;;;5095137;28;20046;-75
2023/01/18 13:00:06;;;;;;;4.35;2.20;;;4.40;87.60;;;;;;5095047;28;20047;-76
2023/01/18 13:02:43;;;;;;;3.88;1.90;;;4.40;87.40;;;;;;5079264;28;20092;-76
2023/01/18 13:05:33;;;;;;;4.63;2.05;;;4.40;87.30;;;;;;5093638;28;20124;-76
2023/01/18 13:08:07;;;;;;;4.15;2.08;;;4.50;87.40;;;;;;5094287;28;20048;-77
2023/01/18 13:10:35;;;;;;;3.20;2.10;;;4.50;87.40;;;;;;5095041;28;20036;-75
2023/01/18 13:13:04;;;;;;;4.80;2.00;;;4.60;87.40;;;;;;5094873;28;20077;-77
2023/01/18 13:15:44;;;;;;;3.35;1.90;;;4.60;87.30;;;;;;5078168;28;20059;-75
2023/01/18 13:18:24;;;;;;;5.47;2.22;;;4.60;87.20;;;;;;5111521;28;20149;-75
2023/01/18 13:21:14;;;;;;;4.55;2.30;;;4.60;87.10;;;;;;5095127;28;20067;-74
2023/01/18 13:24:13;;;;;;;4.15;2.40;;;4.60;87.10;;;;;;5111287;28;20127;-75
2023/01/18 13:26:40;;;;;;;3.38;1.63;;;4.60;87.10;;;;;;5092825;28;20038;-77
2023/01/18 13:29:27;;;;;;;2.92;1.65;;;4.70;87.10;;;;;;5095313;28;20059;-76
2023/01/18 13:31:52;;;;;;;3.28;1.70;;;4.80;87.10;;;;;;5094956;28;20047;-77
2023/01/18 13:34:27;;;;;;;3.65;1.95;;;4.80;87.00;;;;;;5094575;28;20508;-77
2023/01/18 13:36:54;;;;;;;4.47;2.35;;;4.70;86.90;;;;;;5112976;28;20078;-76
2023/01/18 13:39:23;;;;;;;6.03;2.30;;;4.70;86.90;;;;;;5096986;28;20046;-76
2023/01/18 13:42:08;;;;;;;4.40;2.20;;;4.70;86.90;;;;;;5098580;28;20083;-76
2023/01/18 13:44:42;;;;;;;4.35;2.10;;;4.70;87.00;;;;;;5116276;28;20050;-75
2023/01/18 13:47:42;;;;;;;3.30;1.98;;;4.80;86.90;;;;;;5062747;28;20036;-75
2023/01/18 13:50:37;;;;;;;4.15;2.20;;;4.80;86.90;;;;;;5115756;28;20035;-75